sensor_id;sensor_type;location;lat;lon;timestamp;P1;durP1;ratioP1;P2;durP2;ratioP2
55350;SDS011;62194;49.480;10.986;2023-03-09T00:00:02;4.77;;;2.97;;
55350;SDS011;62194;49.480;10.986;2023-03-09T00:00:16;5.32;;;3.31;;
55350;SDS011;62194;49.480;10.986;2023-03-09T00:00:26;5.53;;;3.41;;
55350;SDS011;62194;49.480;10.986;2023-03-09T00:00:31;4.97;;;3.33;;
55350;SDS011;62194;49.480;10.986;2023-03-09T00:00:38;4.73;;;3.07;;
55350;SDS011;62194;49.480;10.986;2023-03-09T00:00:44;4.58;;;2.92;;
55350;SDS011;62194;49.480;10.986;2023-03-09T00:00:49;4.60;;;2.90;;
55350;SDS011;62194;49.480;10.986;2023-03-09T00:00:54;4.10;;;2.90;;
55350;SDS011;62194;49.480;10.986;2023-03-09T00:01:00;4.13;;;2.88;;
55350;SDS011;62194;49.480;10.986;2023-03-09T00:01:06;4.30;;;2.90;;
55350;SDS011;62194;49.480;10.986;2023-03-09T00:01:22;4.15;;;2.79;;
55350;SDS011;62194;49.480;10.986;2023-03-09T00:01:30;4.50;;;2.63;;
55350;SDS011;62194;49.480;10.986;2023-03-09T00:01:36;4.16;;;2.58;;
55350;SDS011;62194;49.480;10.986;2023-03-09T00:01:42;3.83;;;2.53;;
55350;SDS011;62194;49.480;10.986;2023-03-09T00:01:51;3.80;;;2.60;;
55350;SDS011;62194;49.480;10.986;2023-03-09T00:02:01;3.13;;;2.58;;
55350;SDS011;62194;49.480;10.986;2023-03-09T00:02:07;3.47;;;2.60;;
55350;SDS011;62194;49.480;10.986;2023-03-09T00:02:14;3.80;;;2.60;;
55350;SDS011;62194;49.480;10.986;2023-03-09T00:02:19;3.88;;;2.55;;
55350;SDS011;62194;49.480;10.986;2023-03-09T00:02:25;3.97;;;2.50;;
55350;SDS011;62194;49.480;10.986;2023-03-09T00:02:30;4.33;;;2.60;;
55350;SDS011;62194;49.480;10.986;2023-03-09T00:02:36;4.50;;;2.88;;
55350;SDS011;62194;49.480;10.986;2023-03-09T00:02:41;5.03;;;2.97;;
55350;SDS011;62194;49.480;10.986;2023-03-09T00:02:47;5.28;;;2.90;;
55350;SDS011;62194;49.480;10.986;2023-03-09T00:02:52;5.53;;;2.97;;
55350;SDS011;62194;49.480;10.986;2023-03-09T00:02:58;5.15;;;2.92;;
55350;SDS011;62194;49.480;10.986;2023-03-09T00:03:03;4.93;;;2.77;;
55350;SDS011;62194;49.480;10.986;2023-03-09T00:03:08;4.37;;;2.60;;
55350;SDS011;62194;49.480;10.986;2023-03-09T00:03:20;3.99;;;2.78;;
55350;SDS011;62194;49.480;10.986;2023-03-09T00:03:26;3.92;;;2.70;;
55350;SDS011;62194;49.480;10.986;2023-03-09T00:03:31;4.10;;;2.63;;
55350;SDS011;62194;49.480;10.986;2023-03-09T00:03:37;3.93;;;2.60;;
55350;SDS011;62194;49.480;10.986;2023-03-09T00:03:42;3.78;;;2.60;;
55350;SDS011;62194;49.480;10.986;2023-03-09T00:03:48;4.27;;;2.60;;
55350;SDS011;62194;49.480;10.986;2023-03-09T00:03:53;4.53;;;2.70;;
55350;SDS011;62194;49.480;10.986;2023-03-09T00:03:59;5.05;;;2.78;;
55350;SDS011;62194;49.480;10.986;2023-03-09T00:04:06;5.14;;;2.86;;
55350;SDS011;62194;49.480;10.986;2023-03-09T00:04:14;5.40;;;2.90;;
55350;SDS011;62194;49.480;10.986;2023-03-09T00:04:20;4.94;;;2.84;;
55350;SDS011;62194;49.480;10.986;2023-03-09T00:04:26;4.93;;;2.85;;
55350;SDS011;62194;49.480;10.986;2023-03-09T00:04:31;4.93;;;2.90;;
55350;SDS011;62194;49.480;10.986;2023-03-09T00:04:37;5.30;;;3.03;;
55350;SDS011;62194;49.480;10.986;2023-03-09T00:04:42;5.47;;;3.00;;
55350;SDS011;62194;49.480;10.986;2023-03-09T00:04:47;5.55;;;3.08;;
55350;SDS011;62194;49.480;10.986;2023-03-09T00:04:52;5.77;;;3.20;;
55350;SDS011;62194;49.480;10.986;2023-03-09T00:04:58;5.37;;;3.10;;
55350;SDS011;62194;49.480;10.986;2023-03-09T00:05:03;5.17;;;3.07;;
55350;SDS011;62194;49.480;10.986;2023-03-09T00:05:10;4.86;;;2.92;;
55350;SDS011;62194;49.480;10.986;2023-03-09T00:05:16;5.66;;;2.90;;
55350;SDS011;62194;49.480;10.986;2023-03-09T00:05:21;6.20;;;2.77;;
55350;SDS011;62194;49.480;10.986;2023-03-09T00:05:27;6.50;;;2.72;;
55350;SDS011;62194;49.480;10.986;2023-03-09T00:05:33;6.33;;;2.80;;
55350;SDS011;62194;49.480;10.986;2023-03-09T00:05:38;6.45;;;2.88;;
55350;SDS011;62194;49.480;10.986;2023-03-09T00:05:44;6.40;;;3.00;;
55350;SDS011;62194;49.480;10.986;2023-03-09T00:06:00;5.54;;;3.00;;
55350;SDS011;62194;49.480;10.986;2023-03-09T00:06:05;5.50;;;2.90;;
55350;SDS011;62194;49.480;10.986;2023-03-09T00:06:11;5.07;;;2.78;;
55350;SDS011;62194;49.480;10.986;2023-03-09T00:06:17;4.37;;;2.70;;
55350;SDS011;62194;49.480;10.986;2023-03-09T00:06:22;4.40;;;2.70;;
55350;SDS011;62194;49.480;10.986;2023-03-09T00:06:28;4.30;;;2.80;;
55350;SDS011;62194;49.480;10.986;2023-03-09T00:06:34;4.65;;;3.00;;
55350;SDS011;62194;49.480;10.986;2023-03-09T00:06:39;4.50;;;2.97;;
55350;SDS011;62194;49.480;10.986;2023-03-09T00:06:45;4.72;;;3.00;;
55350;SDS011;62194;49.480;10.986;2023-03-09T00:06:51;4.45;;;2.92;;
55350;SDS011;62194;49.480;10.986;2023-03-09T00:06:56;4.30;;;2.73;;
55350;SDS011;62194;49.480;10.986;2023-03-09T00:07:03;3.97;;;2.63;;
55350;SDS011;62194;49.480;10.986;2023-03-09T00:07:09;4.60;;;2.63;;
55350;SDS011;62194;49.480;10.986;2023-03-09T00:07:14;4.23;;;2.60;;
55350;SDS011;62194;49.480;10.986;2023-03-09T00:07:19;4.00;;;2.50;;
55350;SDS011;62194;49.480;10.986;2023-03-09T00:07:25;3.95;;;2.53;;
55350;SDS011;62194;49.480;10.986;2023-03-09T00:07:30;3.73;;;2.53;;
55350;SDS011;62194;49.480;10.986;2023-03-09T00:07:35;3.60;;;2.50;;
55350;SDS011;62194;49.480;10.986;2023-03-09T00:07:41;3.05;;;2.40;;
55350;SDS011;62194;49.480;10.986;2023-03-09T00:07:48;3.40;;;2.47;;
55350;SDS011;62194;49.480;10.986;2023-03-09T00:07:53;3.30;;;2.50;;
55350;SDS011;62194;49.480;10.986;2023-03-09T00:08:00;3.63;;;2.53;;
55350;SDS011;62194;49.480;10.986;2023-03-09T00:08:05;4.17;;;2.60;;
55350;SDS011;62194;49.480;10.986;2023-03-09T00:08:11;4.32;;;2.70;;
55350;SDS011;62194;49.480;10.986;2023-03-09T00:08:16;4.23;;;2.70;;
55350;SDS011;62194;49.480;10.986;2023-03-09T00:08:21;4.37;;;2.80;;
55350;SDS011;62194;49.480;10.986;2023-03-09T00:08:27;4.30;;;2.60;;
55350;SDS011;62194;49.480;10.986;2023-03-09T00:08:33;3.93;;;2.50;;
55350;SDS011;62194;49.480;10.986;2023-03-09T00:08:39;3.80;;;2.40;;
55350;SDS011;62194;49.480;10.986;2023-03-09T00:08:44;3.77;;;2.47;;
55350;SDS011;62194;49.480;10.986;2023-03-09T00:08:51;3.70;;;2.40;;
55350;SDS011;62194;49.480;10.986;2023-03-09T00:08:57;3.90;;;2.58;;
55350;SDS011;62194;49.480;10.986;2023-03-09T00:09:02;4.20;;;2.70;;
55350;SDS011;62194;49.480;10.986;2023-03-09T00:09:08;4.38;;;2.78;;
55350;SDS011;62194;49.480;10.986;2023-03-09T00:09:14;4.47;;;2.67;;
55350;SDS011;62194;49.480;10.986;2023-03-09T00:09:20;4.57;;;2.77;;
55350;SDS011;62194;49.480;10.986;2023-03-09T00:09:25;5.10;;;2.88;;
55350;SDS011;62194;49.480;10.986;2023-03-09T00:09:32;4.77;;;2.80;;
55350;SDS011;62194;49.480;10.986;2023-03-09T00:09:37;4.72;;;2.78;;
55350;SDS011;62194;49.480;10.986;2023-03-09T00:09:42;5.30;;;2.92;;
55350;SDS011;62194;49.480;10.986;2023-03-09T00:09:48;5.33;;;2.80;;
55350;SDS011;62194;49.480;10.986;2023-03-09T00:09:53;4.77;;;2.70;;
55350;SDS011;62194;49.480;10.986;2023-03-09T00:09:58;4.80;;;2.67;;
55350;SDS011;62194;49.480;10.986;2023-03-09T00:10:03;4.50;;;2.60;;
55350;SDS011;62194;49.480;10.986;2023-03-09T00:10:10;3.90;;;2.53;;
55350;SDS011;62194;49.480;10.986;2023-03-09T00:10:16;3.52;;;2.50;;
55350;SDS011;62194;49.480;10.986;2023-03-09T00:10:22;3.87;;;2.60;;
55350;SDS011;62194;49.480;10.986;2023-03-09T00:10:27;3.88;;;2.60;;
55350;SDS011;62194;49.480;10.986;2023-03-09T00:10:32;3.87;;;2.70;;
55350;SDS011;62194;49.480;10.986;2023-03-09T00:10:39;4.43;;;2.70;;
55350;SDS011;62194;49.480;10.986;2023-03-09T00:10:45;4.60;;;2.75;;
55350;SDS011;62194;49.480;10.986;2023-03-09T00:10:53;4.53;;;2.70;;
55350;SDS011;62194;49.480;10.986;2023-03-09T00:10:58;4.72;;;2.80;;
55350;SDS011;62194;49.480;10.986;2023-03-09T00:11:04;4.93;;;2.70;;
55350;SDS011;62194;49.480;10.986;2023-03-09T00:11:13;4.57;;;2.67;;
55350;SDS011;62194;49.480;10.986;2023-03-09T00:11:20;4.54;;;2.72;;
55350;SDS011;62194;49.480;10.986;2023-03-09T00:11:25;4.50;;;2.70;;
55350;SDS011;62194;49.480;10.986;2023-03-09T00:11:30;4.53;;;2.80;;
55350;SDS011;62194;49.480;10.986;2023-03-09T00:11:38;4.53;;;2.80;;
55350;SDS011;62194;49.480;10.986;2023-03-09T00:11:45;4.70;;;2.93;;
55350;SDS011;62194;49.480;10.986;2023-03-09T00:11:52;4.57;;;2.83;;
55350;SDS011;62194;49.480;10.986;2023-03-09T00:11:57;4.57;;;2.90;;
55350;SDS011;62194;49.480;10.986;2023-03-09T00:12:02;4.40;;;2.90;;
55350;SDS011;62194;49.480;10.986;2023-03-09T00:12:08;4.20;;;2.88;;
55350;SDS011;62194;49.480;10.986;2023-03-09T00:12:13;3.90;;;2.73;;
55350;SDS011;62194;49.480;10.986;2023-03-09T00:12:19;3.87;;;2.77;;
55350;SDS011;62194;49.480;10.986;2023-03-09T00:12:27;4.33;;;2.87;;
55350;SDS011;62194;49.480;10.986;2023-03-09T00:12:33;4.15;;;2.80;;
55350;SDS011;62194;49.480;10.986;2023-03-09T00:12:38;4.27;;;2.80;;
55350;SDS011;62194;49.480;10.986;2023-03-09T00:12:44;4.25;;;2.80;;
55350;SDS011;62194;49.480;10.986;2023-03-09T00:12:49;4.43;;;2.77;;
55350;SDS011;62194;49.480;10.986;2023-03-09T00:12:54;4.20;;;2.70;;
55350;SDS011;62194;49.480;10.986;2023-03-09T00:13:00;4.18;;;2.60;;
55350;SDS011;62194;49.480;10.986;2023-03-09T00:13:05;4.63;;;2.60;;
55350;SDS011;62194;49.480;10.986;2023-03-09T00:13:10;5.33;;;2.67;;
55350;SDS011;62194;49.480;10.986;2023-03-09T00:13:15;5.23;;;2.67;;
55350;SDS011;62194;49.480;10.986;2023-03-09T00:13:21;4.95;;;2.60;;
55350;SDS011;62194;49.480;10.986;2023-03-09T00:13:27;4.78;;;2.58;;
55350;SDS011;62194;49.480;10.986;2023-03-09T00:13:32;4.07;;;2.57;;
55350;SDS011;62194;49.480;10.986;2023-03-09T00:13:38;3.70;;;2.50;;
55350;SDS011;62194;49.480;10.986;2023-03-09T00:13:43;3.20;;;2.43;;
55350;SDS011;62194;49.480;10.986;2023-03-09T00:13:50;3.70;;;2.60;;
55350;SDS011;62194;49.480;10.986;2023-03-09T00:13:55;3.67;;;2.60;;
55350;SDS011;62194;49.480;10.986;2023-03-09T00:14:01;4.18;;;2.63;;
55350;SDS011;62194;49.480;10.986;2023-03-09T00:14:06;4.23;;;2.57;;
55350;SDS011;62194;49.480;10.986;2023-03-09T00:14:12;4.47;;;2.55;;
55350;SDS011;62194;49.480;10.986;2023-03-09T00:14:19;4.37;;;2.50;;
55350;SDS011;62194;49.480;10.986;2023-03-09T00:14:26;4.60;;;2.50;;
55350;SDS011;62194;49.480;10.986;2023-03-09T00:14:31;4.30;;;2.50;;
55350;SDS011;62194;49.480;10.986;2023-03-09T00:14:37;4.63;;;2.57;;
55350;SDS011;62194;49.480;10.986;2023-03-09T00:14:42;4.27;;;2.60;;
55350;SDS011;62194;49.480;10.986;2023-03-09T00:14:50;3.97;;;2.50;;
55350;SDS011;62194;49.480;10.986;2023-03-09T00:14:56;3.46;;;2.42;;
55350;SDS011;62194;49.480;10.986;2023-03-09T00:15:02;3.10;;;2.50;;
55350;SDS011;62194;49.480;10.986;2023-03-09T00:15:08;2.80;;;2.47;;
55350;SDS011;62194;49.480;10.986;2023-03-09T00:15:14;2.93;;;2.47;;
55350;SDS011;62194;49.480;10.986;2023-03-09T00:15:20;3.07;;;2.40;;
55350;SDS011;62194;49.480;10.986;2023-03-09T00:15:25;3.47;;;2.40;;
55350;SDS011;62194;49.480;10.986;2023-03-09T00:15:30;3.70;;;2.33;;
55350;SDS011;62194;49.480;10.986;2023-03-09T00:15:35;3.70;;;2.30;;
55350;SDS011;62194;49.480;10.986;2023-03-09T00:15:41;3.77;;;2.20;;
55350;SDS011;62194;49.480;10.986;2023-03-09T00:15:46;4.10;;;2.30;;
55350;SDS011;62194;49.480;10.986;2023-03-09T00:15:55;3.80;;;2.40;;
55350;SDS011;62194;49.480;10.986;2023-03-09T00:16:07;4.17;;;2.47;;
55350;SDS011;62194;49.480;10.986;2023-03-09T00:16:19;3.90;;;2.50;;
55350;SDS011;62194;49.480;10.986;2023-03-09T00:16:28;3.30;;;2.46;;
55350;SDS011;62194;49.480;10.986;2023-03-09T00:16:34;2.85;;;2.33;;
55350;SDS011;62194;49.480;10.986;2023-03-09T00:16:42;2.80;;;2.28;;
55350;SDS011;62194;49.480;10.986;2023-03-09T00:16:48;2.87;;;2.30;;
55350;SDS011;62194;49.480;10.986;2023-03-09T00:16:53;3.10;;;2.33;;
55350;SDS011;62194;49.480;10.986;2023-03-09T00:16:58;3.20;;;2.30;;
55350;SDS011;62194;49.480;10.986;2023-03-09T00:17:04;3.27;;;2.43;;
55350;SDS011;62194;49.480;10.986;2023-03-09T00:17:09;3.95;;;2.58;;
55350;SDS011;62194;49.480;10.986;2023-03-09T00:17:14;4.03;;;2.57;;
55350;SDS011;62194;49.480;10.986;2023-03-09T00:17:20;3.73;;;2.50;;
55350;SDS011;62194;49.480;10.986;2023-03-09T00:17:25;3.60;;;2.45;;
55350;SDS011;62194;49.480;10.986;2023-03-09T00:17:30;3.73;;;2.43;;
55350;SDS011;62194;49.480;10.986;2023-03-09T00:17:36;3.50;;;2.37;;
55350;SDS011;62194;49.480;10.986;2023-03-09T00:17:42;3.30;;;2.30;;
55350;SDS011;62194;49.480;10.986;2023-03-09T00:17:49;3.20;;;2.28;;
55350;SDS011;62194;49.480;10.986;2023-03-09T00:17:54;3.25;;;2.30;;
55350;SDS011;62194;49.480;10.986;2023-03-09T00:17:59;3.03;;;2.23;;
55350;SDS011;62194;49.480;10.986;2023-03-09T00:18:04;2.93;;;2.13;;
55350;SDS011;62194;49.480;10.986;2023-03-09T00:18:10;3.33;;;2.30;;
55350;SDS011;62194;49.480;10.986;2023-03-09T00:18:18;3.80;;;2.40;;
55350;SDS011;62194;49.480;10.986;2023-03-09T00:18:25;4.00;;;2.50;;
55350;SDS011;62194;49.480;10.986;2023-03-09T00:18:30;4.03;;;2.50;;
55350;SDS011;62194;49.480;10.986;2023-03-09T00:18:35;3.90;;;2.57;;
55350;SDS011;62194;49.480;10.986;2023-03-09T00:18:41;3.58;;;2.40;;
55350;SDS011;62194;49.480;10.986;2023-03-09T00:18:47;3.65;;;2.40;;
55350;SDS011;62194;49.480;10.986;2023-03-09T00:18:53;3.80;;;2.43;;
55350;SDS011;62194;49.480;10.986;2023-03-09T00:19:01;3.87;;;2.50;;
55350;SDS011;62194;49.480;10.986;2023-03-09T00:19:06;4.30;;;2.50;;
55350;SDS011;62194;49.480;10.986;2023-03-09T00:19:12;4.22;;;2.53;;
55350;SDS011;62194;49.480;10.986;2023-03-09T00:19:17;3.97;;;2.53;;
55350;SDS011;62194;49.480;10.986;2023-03-09T00:19:31;3.75;;;2.46;;
55350;SDS011;62194;49.480;10.986;2023-03-09T00:19:36;3.25;;;2.40;;
55350;SDS011;62194;49.480;10.986;2023-03-09T00:19:42;3.27;;;2.40;;
55350;SDS011;62194;49.480;10.986;2023-03-09T00:19:47;3.30;;;2.40;;
55350;SDS011;62194;49.480;10.986;2023-03-09T00:19:53;3.33;;;2.30;;
55350;SDS011;62194;49.480;10.986;2023-03-09T00:20:05;3.26;;;2.33;;
55350;SDS011;62194;49.480;10.986;2023-03-09T00:20:22;3.19;;;2.34;;
55350;SDS011;62194;49.480;10.986;2023-03-09T00:20:29;3.68;;;2.66;;
55350;SDS011;62194;49.480;10.986;2023-03-09T00:20:34;4.23;;;2.80;;
55350;SDS011;62194;49.480;10.986;2023-03-09T00:20:39;4.68;;;2.88;;
55350;SDS011;62194;49.480;10.986;2023-03-09T00:20:45;4.60;;;2.87;;
55350;SDS011;62194;49.480;10.986;2023-03-09T00:20:51;4.38;;;2.70;;
55350;SDS011;62194;49.480;10.986;2023-03-09T00:20:56;4.27;;;2.60;;
55350;SDS011;62194;49.480;10.986;2023-03-09T00:21:01;3.90;;;2.50;;
55350;SDS011;62194;49.480;10.986;2023-03-09T00:21:08;3.53;;;2.33;;
55350;SDS011;62194;49.480;10.986;2023-03-09T00:21:20;3.40;;;2.50;;
55350;SDS011;62194;49.480;10.986;2023-03-09T00:21:41;3.61;;;2.46;;
55350;SDS011;62194;49.480;10.986;2023-03-09T00:21:53;4.37;;;2.50;;
55350;SDS011;62194;49.480;10.986;2023-03-09T00:21:59;4.20;;;2.40;;
55350;SDS011;62194;49.480;10.986;2023-03-09T00:22:05;3.42;;;2.33;;
55350;SDS011;62194;49.480;10.986;2023-03-09T00:22:11;3.70;;;2.27;;
55350;SDS011;62194;49.480;10.986;2023-03-09T00:22:16;3.93;;;2.20;;
55350;SDS011;62194;49.480;10.986;2023-03-09T00:22:22;4.42;;;2.48;;
55350;SDS011;62194;49.480;10.986;2023-03-09T00:22:28;4.57;;;2.50;;
55350;SDS011;62194;49.480;10.986;2023-03-09T00:22:33;4.63;;;2.60;;
55350;SDS011;62194;49.480;10.986;2023-03-09T00:22:38;4.32;;;2.60;;
55350;SDS011;62194;49.480;10.986;2023-03-09T00:22:47;3.73;;;2.53;;
55350;SDS011;62194;49.480;10.986;2023-03-09T00:22:57;3.55;;;2.33;;
55350;SDS011;62194;49.480;10.986;2023-03-09T00:23:02;3.50;;;2.30;;
55350;SDS011;62194;49.480;10.986;2023-03-09T00:23:13;3.73;;;2.21;;
55350;SDS011;62194;49.480;10.986;2023-03-09T00:23:22;3.59;;;2.26;;
55350;SDS011;62194;49.480;10.986;2023-03-09T00:23:28;4.00;;;2.30;;
55350;SDS011;62194;49.480;10.986;2023-03-09T00:23:33;4.47;;;2.40;;
55350;SDS011;62194;49.480;10.986;2023-03-09T00:23:41;4.63;;;2.53;;
55350;SDS011;62194;49.480;10.986;2023-03-09T00:23:47;4.68;;;2.55;;
55350;SDS011;62194;49.480;10.986;2023-03-09T00:23:52;4.43;;;2.50;;
55350;SDS011;62194;49.480;10.986;2023-03-09T00:23:58;4.60;;;2.47;;
55350;SDS011;62194;49.480;10.986;2023-03-09T00:24:05;4.25;;;2.35;;
55350;SDS011;62194;49.480;10.986;2023-03-09T00:24:13;4.23;;;2.40;;
55350;SDS011;62194;49.480;10.986;2023-03-09T00:24:25;4.74;;;2.47;;
55350;SDS011;62194;49.480;10.986;2023-03-09T00:24:32;4.29;;;2.51;;
55350;SDS011;62194;49.480;10.986;2023-03-09T00:24:37;3.97;;;2.43;;
55350;SDS011;62194;49.480;10.986;2023-03-09T00:24:52;3.40;;;2.34;;
55350;SDS011;62194;49.480;10.986;2023-03-09T00:24:58;3.02;;;2.40;;
55350;SDS011;62194;49.480;10.986;2023-03-09T00:25:04;3.03;;;2.40;;
55350;SDS011;62194;49.480;10.986;2023-03-09T00:25:09;3.07;;;2.43;;
55350;SDS011;62194;49.480;10.986;2023-03-09T00:25:19;2.93;;;2.40;;
55350;SDS011;62194;49.480;10.986;2023-03-09T00:25:27;2.86;;;2.30;;
55350;SDS011;62194;49.480;10.986;2023-03-09T00:25:34;2.80;;;2.30;;
55350;SDS011;62194;49.480;10.986;2023-03-09T00:25:39;2.80;;;2.30;;
55350;SDS011;62194;49.480;10.986;2023-03-09T00:25:45;2.90;;;2.17;;
55350;SDS011;62194;49.480;10.986;2023-03-09T00:25:50;2.73;;;2.20;;
55350;SDS011;62194;49.480;10.986;2023-03-09T00:25:55;2.63;;;2.17;;
55350;SDS011;62194;49.480;10.986;2023-03-09T00:26:07;2.70;;;2.00;;
55350;SDS011;62194;49.480;10.986;2023-03-09T00:26:14;2.72;;;2.10;;
55350;SDS011;62194;49.480;10.986;2023-03-09T00:26:19;2.97;;;2.17;;
55350;SDS011;62194;49.480;10.986;2023-03-09T00:26:24;2.90;;;2.10;;
55350;SDS011;62194;49.480;10.986;2023-03-09T00:26:29;2.78;;;2.00;;
55350;SDS011;62194;49.480;10.986;2023-03-09T00:26:36;2.50;;;1.90;;
55350;SDS011;62194;49.480;10.986;2023-03-09T00:26:47;2.97;;;2.10;;
55350;SDS011;62194;49.480;10.986;2023-03-09T00:26:56;3.24;;;2.23;;
55350;SDS011;62194;49.480;10.986;2023-03-09T00:27:02;4.05;;;2.68;;
55350;SDS011;62194;49.480;10.986;2023-03-09T00:27:08;4.10;;;2.80;;
55350;SDS011;62194;49.480;10.986;2023-03-09T00:27:13;4.28;;;2.88;;
55350;SDS011;62194;49.480;10.986;2023-03-09T00:27:19;4.73;;;2.90;;
55350;SDS011;62194;49.480;10.986;2023-03-09T00:27:24;4.33;;;2.73;;
55350;SDS011;62194;49.480;10.986;2023-03-09T00:27:29;4.30;;;2.70;;
55350;SDS011;62194;49.480;10.986;2023-03-09T00:27:34;4.33;;;2.77;;
55350;SDS011;62194;49.480;10.986;2023-03-09T00:27:40;4.47;;;2.67;;
55350;SDS011;62194;49.480;10.986;2023-03-09T00:27:51;3.86;;;2.60;;
55350;SDS011;62194;49.480;10.986;2023-03-09T00:27:57;3.84;;;2.65;;
55350;SDS011;62194;49.480;10.986;2023-03-09T00:28:02;3.53;;;2.40;;
55350;SDS011;62194;49.480;10.986;2023-03-09T00:28:08;3.27;;;2.40;;
55350;SDS011;62194;49.480;10.986;2023-03-09T00:28:13;3.25;;;2.38;;
55350;SDS011;62194;49.480;10.986;2023-03-09T00:28:18;3.40;;;2.27;;
55350;SDS011;62194;49.480;10.986;2023-03-09T00:28:23;3.23;;;2.23;;
55350;SDS011;62194;49.480;10.986;2023-03-09T00:28:29;3.10;;;2.20;;
55350;SDS011;62194;49.480;10.986;2023-03-09T00:28:34;3.00;;;2.25;;
55350;SDS011;62194;49.480;10.986;2023-03-09T00:28:39;2.90;;;2.30;;
55350;SDS011;62194;49.480;10.986;2023-03-09T00:28:45;2.90;;;2.30;;
55350;SDS011;62194;49.480;10.986;2023-03-09T00:28:51;2.80;;;2.27;;
55350;SDS011;62194;49.480;10.986;2023-03-09T00:28:56;3.00;;;2.20;;
55350;SDS011;62194;49.480;10.986;2023-03-09T00:29:02;3.55;;;2.30;;
55350;SDS011;62194;49.480;10.986;2023-03-09T00:29:10;3.74;;;2.32;;
55350;SDS011;62194;49.480;10.986;2023-03-09T00:29:16;3.50;;;2.50;;
55350;SDS011;62194;49.480;10.986;2023-03-09T00:29:23;3.67;;;2.50;;
55350;SDS011;62194;49.480;10.986;2023-03-09T00:29:29;3.33;;;2.57;;
55350;SDS011;62194;49.480;10.986;2023-03-09T00:29:35;3.17;;;2.47;;
55350;SDS011;62194;49.480;10.986;2023-03-09T00:29:41;3.07;;;2.43;;
55350;SDS011;62194;49.480;10.986;2023-03-09T00:29:46;3.00;;;2.35;;
55350;SDS011;62194;49.480;10.986;2023-03-09T00:29:52;2.70;;;2.20;;
55350;SDS011;62194;49.480;10.986;2023-03-09T00:29:57;2.70;;;2.20;;
55350;SDS011;62194;49.480;10.986;2023-03-09T00:30:02;2.70;;;2.23;;
55350;SDS011;62194;49.480;10.986;2023-03-09T00:30:09;2.90;;;2.28;;
55350;SDS011;62194;49.480;10.986;2023-03-09T00:30:15;3.50;;;2.30;;
55350;SDS011;62194;49.480;10.986;2023-03-09T00:30:22;3.90;;;2.40;;
55350;SDS011;62194;49.480;10.986;2023-03-09T00:30:27;4.30;;;2.47;;
55350;SDS011;62194;49.480;10.986;2023-03-09T00:30:32;4.43;;;2.50;;
55350;SDS011;62194;49.480;10.986;2023-03-09T00:30:38;4.17;;;2.40;;
55350;SDS011;62194;49.480;10.986;2023-03-09T00:30:43;3.67;;;2.38;;
55350;SDS011;62194;49.480;10.986;2023-03-09T00:30:48;3.67;;;2.37;;
55350;SDS011;62194;49.480;10.986;2023-03-09T00:30:53;3.27;;;2.40;;
55350;SDS011;62194;49.480;10.986;2023-03-09T00:31:04;3.03;;;2.26;;
55350;SDS011;62194;49.480;10.986;2023-03-09T00:31:11;3.33;;;2.27;;
55350;SDS011;62194;49.480;10.986;2023-03-09T00:31:16;3.47;;;2.40;;
55350;SDS011;62194;49.480;10.986;2023-03-09T00:31:22;3.17;;;2.35;;
55350;SDS011;62194;49.480;10.986;2023-03-09T00:31:28;3.20;;;2.42;;
55350;SDS011;62194;49.480;10.986;2023-03-09T00:31:33;3.13;;;2.50;;
55350;SDS011;62194;49.480;10.986;2023-03-09T00:31:39;3.17;;;2.58;;
55350;SDS011;62194;49.480;10.986;2023-03-09T00:31:45;3.00;;;2.47;;
55350;SDS011;62194;49.480;10.986;2023-03-09T00:31:50;3.20;;;2.37;;
55350;SDS011;62194;49.480;10.986;2023-03-09T00:31:57;3.46;;;2.38;;
55350;SDS011;62194;49.480;10.986;2023-03-09T00:32:03;3.50;;;2.33;;
55350;SDS011;62194;49.480;10.986;2023-03-09T00:32:08;3.53;;;2.33;;
55350;SDS011;62194;49.480;10.986;2023-03-09T00:32:14;3.78;;;2.40;;
55350;SDS011;62194;49.480;10.986;2023-03-09T00:32:19;3.50;;;2.30;;
55350;SDS011;62194;49.480;10.986;2023-03-09T00:32:24;3.10;;;2.23;;
55350;SDS011;62194;49.480;10.986;2023-03-09T00:32:29;3.60;;;2.40;;
55350;SDS011;62194;49.480;10.986;2023-03-09T00:32:35;3.77;;;2.40;;
55350;SDS011;62194;49.480;10.986;2023-03-09T00:32:40;3.65;;;2.30;;
55350;SDS011;62194;49.480;10.986;2023-03-09T00:32:46;4.07;;;2.37;;
55350;SDS011;62194;49.480;10.986;2023-03-09T00:32:52;4.37;;;2.53;;
55350;SDS011;62194;49.480;10.986;2023-03-09T00:32:57;4.24;;;2.44;;
55350;SDS011;62194;49.480;10.986;2023-03-09T00:33:03;4.70;;;2.50;;
55350;SDS011;62194;49.480;10.986;2023-03-09T00:33:08;4.50;;;2.50;;
55350;SDS011;62194;49.480;10.986;2023-03-09T00:33:13;4.38;;;2.47;;
55350;SDS011;62194;49.480;10.986;2023-03-09T00:33:18;4.53;;;2.57;;
55350;SDS011;62194;49.480;10.986;2023-03-09T00:33:24;4.57;;;2.50;;
55350;SDS011;62194;49.480;10.986;2023-03-09T00:33:29;4.70;;;2.60;;
55350;SDS011;62194;49.480;10.986;2023-03-09T00:33:35;4.93;;;2.72;;
55350;SDS011;62194;49.480;10.986;2023-03-09T00:33:40;5.53;;;3.10;;
55350;SDS011;62194;49.480;10.986;2023-03-09T00:33:48;6.00;;;3.28;;
55350;SDS011;62194;49.480;10.986;2023-03-09T00:33:54;6.33;;;3.55;;
55350;SDS011;62194;49.480;10.986;2023-03-09T00:33:59;6.90;;;3.83;;
55350;SDS011;62194;49.480;10.986;2023-03-09T00:34:05;6.87;;;3.90;;
55350;SDS011;62194;49.480;10.986;2023-03-09T00:34:14;6.58;;;3.80;;
55350;SDS011;62194;49.480;10.986;2023-03-09T00:34:21;6.30;;;3.70;;
55350;SDS011;62194;49.480;10.986;2023-03-09T00:34:27;6.72;;;3.63;;
55350;SDS011;62194;49.480;10.986;2023-03-09T00:34:32;6.53;;;3.50;;
55350;SDS011;62194;49.480;10.986;2023-03-09T00:34:37;6.53;;;3.40;;
55350;SDS011;62194;49.480;10.986;2023-03-09T00:34:42;7.77;;;3.60;;
55350;SDS011;62194;49.480;10.986;2023-03-09T00:34:48;8.00;;;3.80;;
55350;SDS011;62194;49.480;10.986;2023-03-09T00:34:54;8.38;;;4.00;;
55350;SDS011;62194;49.480;10.986;2023-03-09T00:35:00;8.40;;;4.17;;
55350;SDS011;62194;49.480;10.986;2023-03-09T00:35:05;9.02;;;4.40;;
55350;SDS011;62194;49.480;10.986;2023-03-09T00:35:11;9.05;;;4.50;;
55350;SDS011;62194;49.480;10.986;2023-03-09T00:35:17;8.97;;;4.50;;
55350;SDS011;62194;49.480;10.986;2023-03-09T00:35:22;8.23;;;4.22;;
55350;SDS011;62194;49.480;10.986;2023-03-09T00:35:27;7.37;;;3.90;;
55350;SDS011;62194;49.480;10.986;2023-03-09T00:35:36;6.60;;;3.80;;
55350;SDS011;62194;49.480;10.986;2023-03-09T00:35:41;5.23;;;3.40;;
55350;SDS011;62194;49.480;10.986;2023-03-09T00:35:46;4.40;;;3.03;;
55350;SDS011;62194;49.480;10.986;2023-03-09T00:35:51;5.33;;;3.00;;
55350;SDS011;62194;49.480;10.986;2023-03-09T00:35:57;5.10;;;2.87;;
55350;SDS011;62194;49.480;10.986;2023-03-09T00:36:03;4.62;;;2.56;;
55350;SDS011;62194;49.480;10.986;2023-03-09T00:36:12;4.40;;;2.40;;
55350;SDS011;62194;49.480;10.986;2023-03-09T00:36:18;3.60;;;2.37;;
55350;SDS011;62194;49.480;10.986;2023-03-09T00:36:23;3.23;;;2.20;;
55350;SDS011;62194;49.480;10.986;2023-03-09T00:36:29;3.60;;;2.35;;
55350;SDS011;62194;49.480;10.986;2023-03-09T00:36:34;3.80;;;2.40;;
55350;SDS011;62194;49.480;10.986;2023-03-09T00:36:39;3.93;;;2.47;;
55350;SDS011;62194;49.480;10.986;2023-03-09T00:36:45;3.70;;;2.45;;
55350;SDS011;62194;49.480;10.986;2023-03-09T00:36:50;3.67;;;2.53;;
55350;SDS011;62194;49.480;10.986;2023-03-09T00:36:55;3.70;;;2.70;;
55350;SDS011;62194;49.480;10.986;2023-03-09T00:37:01;3.55;;;2.70;;
55350;SDS011;62194;49.480;10.986;2023-03-09T00:37:06;3.27;;;2.67;;
55350;SDS011;62194;49.480;10.986;2023-03-09T00:37:11;3.20;;;2.60;;